sensor_id;sensor_type;location;lat;lon;timestamp;P1;durP1;ratioP1;P2;durP2;ratioP2
61336;SDS011;47212;41.326;2.104;2022-08-19T00:03:39;6.35;;;3.28;;
61336;SDS011;47212;41.326;2.104;2022-08-19T00:08:55;9.02;;;3.53;;
61336;SDS011;47212;41.326;2.104;2022-08-19T00:14:04;4.65;;;3.35;;
61336;SDS011;47212;41.326;2.104;2022-08-19T00:19:27;7.70;;;3.17;;
61336;SDS011;47212;41.326;2.104;2022-08-19T00:24:31;7.68;;;3.58;;
61336;SDS011;47212;41.326;2.104;2022-08-19T00:29:42;6.93;;;3.28;;
61336;SDS011;47212;41.326;2.104;2022-08-19T00:35:11;5.40;;;2.80;;
61336;SDS011;47212;41.326;2.104;2022-08-19T00:40:17;5.68;;;2.83;;
61336;SDS011;47212;41.326;2.104;2022-08-19T00:45:35;4.78;;;3.00;;
61336;SDS011;47212;41.326;2.104;2022-08-19T00:50:39;7.57;;;3.05;;
61336;SDS011;47212;41.326;2.104;2022-08-19T00:55:55;6.60;;;3.65;;
61336;SDS011;47212;41.326;2.104;2022-08-19T01:01:04;5.25;;;2.90;;
61336;SDS011;47212;41.326;2.104;2022-08-19T01:06:17;5.68;;;3.20;;
61336;SDS011;47212;41.326;2.104;2022-08-19T01:11:31;3.95;;;2.90;;
61336;SDS011;47212;41.326;2.104;2022-08-19T01:16:51;3.42;;;2.50;;
61336;SDS011;47212;41.326;2.104;2022-08-19T01:22:38;3.30;;;2.45;;
61336;SDS011;47212;41.326;2.104;2022-08-19T01:28:22;4.18;;;2.60;;
61336;SDS011;47212;41.326;2.104;2022-08-19T01:33:38;9.88;;;2.83;;
61336;SDS011;47212;41.326;2.104;2022-08-19T01:38:48;5.18;;;3.00;;
61336;SDS011;47212;41.326;2.104;2022-08-19T01:43:56;3.72;;;2.50;;
61336;SDS011;47212;41.326;2.104;2022-08-19T01:49:22;7.00;;;3.03;;
61336;SDS011;47212;41.326;2.104;2022-08-19T01:54:31;5.97;;;2.80;;
61336;SDS011;47212;41.326;2.104;2022-08-19T01:59:36;6.00;;;2.55;;
61336;SDS011;47212;41.326;2.104;2022-08-19T02:04:54;4.72;;;2.92;;
61336;SDS011;47212;41.326;2.104;2022-08-19T02:09:57;5.93;;;3.08;;
61336;SDS011;47212;41.326;2.104;2022-08-19T02:15:21;6.07;;;3.05;;
61336;SDS011;47212;41.326;2.104;2022-08-19T02:20:27;7.20;;;3.45;;
61336;SDS011;47212;41.326;2.104;2022-08-19T02:25:35;5.22;;;2.70;;
61336;SDS011;47212;41.326;2.104;2022-08-19T02:30:43;5.75;;;3.60;;
61336;SDS011;47212;41.326;2.104;2022-08-19T02:35:54;6.88;;;3.60;;
61336;SDS011;47212;41.326;2.104;2022-08-19T02:41:00;6.32;;;2.92;;
61336;SDS011;47212;41.326;2.104;2022-08-19T02:46:13;7.47;;;3.22;;
61336;SDS011;47212;41.326;2.104;2022-08-19T02:51:35;4.95;;;2.47;;
61336;SDS011;47212;41.326;2.104;2022-08-19T02:56:46;6.68;;;2.97;;
61336;SDS011;47212;41.326;2.104;2022-08-19T03:01:54;4.47;;;2.65;;
61336;SDS011;47212;41.326;2.104;2022-08-19T03:06:56;5.50;;;2.38;;
61336;SDS011;47212;41.326;2.104;2022-08-19T03:12:11;4.40;;;2.58;;
61336;SDS011;47212;41.326;2.104;2022-08-19T03:17:13;5.70;;;2.50;;
61336;SDS011;47212;41.326;2.104;2022-08-19T03:22:15;4.80;;;2.67;;
61336;SDS011;47212;41.326;2.104;2022-08-19T03:27:17;5.55;;;2.47;;
61336;SDS011;47212;41.326;2.104;2022-08-19T03:32:21;4.90;;;2.42;;
61336;SDS011;47212;41.326;2.104;2022-08-19T03:37:33;3.28;;;2.30;;
61336;SDS011;47212;41.326;2.104;2022-08-19T03:42:36;5.90;;;2.17;;
61336;SDS011;47212;41.326;2.104;2022-08-19T03:47:59;2.25;;;1.70;;
61336;SDS011;47212;41.326;2.104;2022-08-19T03:53:01;6.05;;;1.98;;
61336;SDS011;47212;41.326;2.104;2022-08-19T03:58:03;4.95;;;2.08;;
61336;SDS011;47212;41.326;2.104;2022-08-19T04:03:19;2.88;;;1.67;;
61336;SDS011;47212;41.326;2.104;2022-08-19T04:08:20;6.72;;;2.13;;
61336;SDS011;47212;41.326;2.104;2022-08-19T04:13:23;3.28;;;1.92;;
61336;SDS011;47212;41.326;2.104;2022-08-19T04:18:38;2.95;;;1.80;;
61336;SDS011;47212;41.326;2.104;2022-08-19T04:23:41;3.88;;;1.90;;
61336;SDS011;47212;41.326;2.104;2022-08-19T04:28:50;3.45;;;1.95;;
61336;SDS011;47212;41.326;2.104;2022-08-19T04:33:56;3.25;;;1.80;;
61336;SDS011;47212;41.326;2.104;2022-08-19T04:39:02;1.95;;;1.42;;
61336;SDS011;47212;41.326;2.104;2022-08-19T04:44:07;3.30;;;1.55;;
61336;SDS011;47212;41.326;2.104;2022-08-19T04:49:11;2.83;;;1.60;;
61336;SDS011;47212;41.326;2.104;2022-08-19T04:54:16;3.00;;;1.38;;
61336;SDS011;47212;41.326;2.104;2022-08-19T04:59:38;4.85;;;1.70;;
61336;SDS011;47212;41.326;2.104;2022-08-19T05:04:57;2.08;;;1.30;;
61336;SDS011;47212;41.326;2.104;2022-08-19T05:10:05;2.63;;;1.33;;
61336;SDS011;47212;41.326;2.104;2022-08-19T05:15:21;4.07;;;1.27;;
61336;SDS011;47212;41.326;2.104;2022-08-19T05:20:23;1.63;;;1.40;;
61336;SDS011;47212;41.326;2.104;2022-08-19T05:25:44;4.40;;;1.48;;
61336;SDS011;47212;41.326;2.104;2022-08-19T05:30:47;2.75;;;1.70;;
61336;SDS011;47212;41.326;2.104;2022-08-19T05:35:52;2.92;;;1.75;;
61336;SDS011;47212;41.326;2.104;2022-08-19T05:40:54;4.22;;;1.80;;
61336;SDS011;47212;41.326;2.104;2022-08-19T05:45:55;3.17;;;1.42;;
61336;SDS011;47212;41.326;2.104;2022-08-19T05:51:02;4.25;;;1.48;;
61336;SDS011;47212;41.326;2.104;2022-08-19T05:56:07;3.20;;;1.40;;
61336;SDS011;47212;41.326;2.104;2022-08-19T06:01:12;1.85;;;1.40;;
61336;SDS011;47212;41.326;2.104;2022-08-19T06:06:21;3.35;;;1.48;;
61336;SDS011;47212;41.326;2.104;2022-08-19T06:11:33;3.80;;;1.48;;
61336;SDS011;47212;41.326;2.104;2022-08-19T06:16:39;3.08;;;1.55;;
61336;SDS011;47212;41.326;2.104;2022-08-19T06:21:48;4.13;;;1.77;;
61336;SDS011;47212;41.326;2.104;2022-08-19T06:26:52;3.75;;;1.40;;
61336;SDS011;47212;41.326;2.104;2022-08-19T06:32:02;3.00;;;1.60;;
61336;SDS011;47212;41.326;2.104;2022-08-19T06:37:08;3.03;;;1.52;;
61336;SDS011;47212;41.326;2.104;2022-08-19T06:42:11;6.57;;;1.52;;
61336;SDS011;47212;41.326;2.104;2022-08-19T06:47:16;2.55;;;1.10;;
61336;SDS011;47212;41.326;2.104;2022-08-19T06:52:38;2.38;;;1.10;;
61336;SDS011;47212;41.326;2.104;2022-08-19T07:11:07;4.30;;;1.50;;
61336;SDS011;47212;41.326;2.104;2022-08-19T07:16:12;2.33;;;1.30;;
61336;SDS011;47212;41.326;2.104;2022-08-19T07:21:22;2.95;;;1.25;;
61336;SDS011;47212;41.326;2.104;2022-08-19T07:27:19;1.20;;;1.10;;
61336;SDS011;47212;41.326;2.104;2022-08-19T07:33:15;3.42;;;1.20;;
61336;SDS011;47212;41.326;2.104;2022-08-19T07:38:22;2.33;;;1.60;;
61336;SDS011;47212;41.326;2.104;2022-08-19T07:43:25;6.90;;;1.50;;
61336;SDS011;47212;41.326;2.104;2022-08-19T07:48:36;6.15;;;1.55;;
61336;SDS011;47212;41.326;2.104;2022-08-19T08:00:00;2.22;;;1.30;;
61336;SDS011;47212;41.326;2.104;2022-08-19T08:05:58;2.03;;;1.27;;
61336;SDS011;47212;41.326;2.104;2022-08-19T08:11:19;3.22;;;1.80;;
61336;SDS011;47212;41.326;2.104;2022-08-19T08:16:36;2.45;;;1.40;;
61336;SDS011;47212;41.326;2.104;2022-08-19T08:21:48;3.78;;;1.70;;
61336;SDS011;47212;41.326;2.104;2022-08-19T08:26:51;2.58;;;1.48;;
61336;SDS011;47212;41.326;2.104;2022-08-19T08:31:58;2.28;;;1.50;;
61336;SDS011;47212;41.326;2.104;2022-08-19T08:37:00;1.50;;;1.23;;
61336;SDS011;47212;41.326;2.104;2022-08-19T08:42:12;3.63;;;1.33;;
61336;SDS011;47212;41.326;2.104;2022-08-19T08:47:31;2.72;;;1.38;;
61336;SDS011;47212;41.326;2.104;2022-08-19T08:52:47;2.97;;;1.05;;
61336;SDS011;47212;41.326;2.104;2022-08-19T09:03:14;1.95;;;1.10;;
61336;SDS011;47212;41.326;2.104;2022-08-19T09:08:38;2.22;;;1.30;;
61336;SDS011;47212;41.326;2.104;2022-08-19T09:14:02;1.90;;;1.10;;
61336;SDS011;47212;41.326;2.104;2022-08-19T09:19:50;2.30;;;1.23;;
61336;SDS011;47212;41.326;2.104;2022-08-19T09:24:54;5.38;;;1.20;;
61336;SDS011;47212;41.326;2.104;2022-08-19T09:29:56;4.68;;;1.45;;
61336;SDS011;47212;41.326;2.104;2022-08-19T09:35:00;2.10;;;1.20;;
61336;SDS011;47212;41.326;2.104;2022-08-19T09:40:09;1.90;;;1.10;;
61336;SDS011;47212;41.326;2.104;2022-08-19T09:45:17;1.80;;;1.27;;
61336;SDS011;47212;41.326;2.104;2022-08-19T09:50:24;4.60;;;1.40;;
61336;SDS011;47212;41.326;2.104;2022-08-19T09:55:26;4.30;;;1.48;;
61336;SDS011;47212;41.326;2.104;2022-08-19T10:00:33;2.75;;;1.33;;
61336;SDS011;47212;41.326;2.104;2022-08-19T10:05:36;2.80;;;1.45;;
61336;SDS011;47212;41.326;2.104;2022-08-19T10:10:50;3.45;;;1.10;;
61336;SDS011;47212;41.326;2.104;2022-08-19T10:15:53;1.58;;;1.02;;
61336;SDS011;47212;41.326;2.104;2022-08-19T10:21:07;2.22;;;1.10;;
61336;SDS011;47212;41.326;2.104;2022-08-19T10:26:14;1.45;;;0.90;;
61336;SDS011;47212;41.326;2.104;2022-08-19T10:31:28;2.83;;;1.00;;
61336;SDS011;47212;41.326;2.104;2022-08-19T10:37:02;1.35;;;0.90;;
61336;SDS011;47212;41.326;2.104;2022-08-19T10:42:15;1.70;;;0.90;;
61336;SDS011;47212;41.326;2.104;2022-08-19T10:47:19;4.03;;;1.10;;
61336;SDS011;47212;41.326;2.104;2022-08-19T10:52:26;1.20;;;1.00;;
61336;SDS011;47212;41.326;2.104;2022-08-19T10:57:39;2.83;;;1.13;;
61336;SDS011;47212;41.326;2.104;2022-08-19T11:03:02;1.88;;;1.25;;
61336;SDS011;47212;41.326;2.104;2022-08-19T11:08:04;1.15;;;1.02;;
61336;SDS011;47212;41.326;2.104;2022-08-19T11:13:25;2.92;;;1.10;;
61336;SDS011;47212;41.326;2.104;2022-08-19T11:18:36;2.90;;;1.17;;
61336;SDS011;47212;41.326;2.104;2022-08-19T11:23:40;1.05;;;0.90;;
61336;SDS011;47212;41.326;2.104;2022-08-19T11:28:43;2.97;;;1.90;;
61336;SDS011;47212;41.326;2.104;2022-08-19T11:33:46;2.55;;;1.20;;
61336;SDS011;47212;41.326;2.104;2022-08-19T11:38:52;3.22;;;1.50;;
61336;SDS011;47212;41.326;2.104;2022-08-19T11:43:54;3.10;;;1.30;;
61336;SDS011;47212;41.326;2.104;2022-08-19T11:48:57;3.15;;;1.40;;
61336;SDS011;47212;41.326;2.104;2022-08-19T11:54:00;2.50;;;1.40;;
61336;SDS011;47212;41.326;2.104;2022-08-19T11:59:03;3.50;;;1.70;;
61336;SDS011;47212;41.326;2.104;2022-08-19T12:04:05;2.97;;;1.25;;
61336;SDS011;47212;41.326;2.104;2022-08-19T12:09:08;3.10;;;1.45;;
61336;SDS011;47212;41.326;2.104;2022-08-19T12:14:12;2.20;;;1.27;;
61336;SDS011;47212;41.326;2.104;2022-08-19T12:19:19;2.58;;;1.70;;
61336;SDS011;47212;41.326;2.104;2022-08-19T12:24:22;4.60;;;2.00;;
61336;SDS011;47212;41.326;2.104;2022-08-19T12:29:25;3.45;;;1.35;;
61336;SDS011;47212;41.326;2.104;2022-08-19T12:34:33;4.15;;;1.40;;
61336;SDS011;47212;41.326;2.104;2022-08-19T12:39:39;2.50;;;1.08;;
61336;SDS011;47212;41.326;2.104;2022-08-19T12:44:43;3.13;;;1.20;;
61336;SDS011;47212;41.326;2.104;2022-08-19T12:49:49;1.23;;;1.10;;
61336;SDS011;47212;41.326;2.104;2022-08-19T12:54:56;2.78;;;1.27;;
61336;SDS011;47212;41.326;2.104;2022-08-19T13:00:48;1.40;;;1.05;;
61336;SDS011;47212;41.326;2.104;2022-08-19T13:06:39;1.27;;;1.17;;
61336;SDS011;47212;41.326;2.104;2022-08-19T13:11:42;1.70;;;1.25;;
61336;SDS011;47212;41.326;2.104;2022-08-19T13:16:44;2.10;;;1.17;;
61336;SDS011;47212;41.326;2.104;2022-08-19T13:21:52;2.35;;;1.30;;
61336;SDS011;47212;41.326;2.104;2022-08-19T13:27:01;1.77;;;1.17;;
61336;SDS011;47212;41.326;2.104;2022-08-19T13:32:07;2.22;;;1.35;;
61336;SDS011;47212;41.326;2.104;2022-08-19T13:37:30;2.42;;;1.40;;
61336;SDS011;47212;41.326;2.104;2022-08-19T13:42:45;1.55;;;1.27;;
61336;SDS011;47212;41.326;2.104;2022-08-19T13:47:49;1.25;;;1.15;;
61336;SDS011;47212;41.326;2.104;2022-08-19T13:53:00;3.65;;;1.38;;
61336;SDS011;47212;41.326;2.104;2022-08-19T13:58:03;2.40;;;1.40;;
61336;SDS011;47212;41.326;2.104;2022-08-19T14:03:06;2.03;;;1.40;;
61336;SDS011;47212;41.326;2.104;2022-08-19T14:08:09;2.65;;;1.02;;
61336;SDS011;47212;41.326;2.104;2022-08-19T14:13:17;1.80;;;1.15;;
61336;SDS011;47212;41.326;2.104;2022-08-19T14:18:21;1.48;;;0.95;;
61336;SDS011;47212;41.326;2.104;2022-08-19T14:23:26;0.93;;;0.90;;
61336;SDS011;47212;41.326;2.104;2022-08-19T14:28:28;1.35;;;1.00;;
61336;SDS011;47212;41.326;2.104;2022-08-19T14:33:31;1.90;;;1.20;;
61336;SDS011;47212;41.326;2.104;2022-08-19T14:38:34;3.20;;;1.17;;
61336;SDS011;47212;41.326;2.104;2022-08-19T14:43:36;1.10;;;1.00;;
61336;SDS011;47212;41.326;2.104;2022-08-19T14:48:39;2.28;;;1.08;;
61336;SDS011;47212;41.326;2.104;2022-08-19T14:59:32;0.73;;;0.73;;
61336;SDS011;47212;41.326;2.104;2022-08-19T15:04:36;1.50;;;0.95;;
61336;SDS011;47212;41.326;2.104;2022-08-19T15:09:40;2.28;;;1.20;;
61336;SDS011;47212;41.326;2.104;2022-08-19T15:14:43;0.98;;;0.90;;
61336;SDS011;47212;41.326;2.104;2022-08-19T15:19:48;1.40;;;0.98;;
61336;SDS011;47212;41.326;2.104;2022-08-19T15:24:50;2.33;;;1.17;;
61336;SDS011;47212;41.326;2.104;2022-08-19T15:29:52;2.17;;;1.23;;
61336;SDS011;47212;41.326;2.104;2022-08-19T15:35:28;1.27;;;0.93;;
61336;SDS011;47212;41.326;2.104;2022-08-19T15:40:31;1.63;;;1.23;;
61336;SDS011;47212;41.326;2.104;2022-08-19T15:45:33;2.13;;;1.20;;
61336;SDS011;47212;41.326;2.104;2022-08-19T15:50:35;2.42;;;1.05;;
61336;SDS011;47212;41.326;2.104;2022-08-19T15:55:41;3.08;;;1.20;;
61336;SDS011;47212;41.326;2.104;2022-08-19T16:00:52;1.23;;;1.00;;
61336;SDS011;47212;41.326;2.104;2022-08-19T16:06:25;1.92;;;1.25;;
61336;SDS011;47212;41.326;2.104;2022-08-19T16:11:33;2.08;;;1.08;;
61336;SDS011;47212;41.326;2.104;2022-08-19T16:16:46;2.58;;;1.10;;
61336;SDS011;47212;41.326;2.104;2022-08-19T16:21:50;2.08;;;1.02;;
61336;SDS011;47212;41.326;2.104;2022-08-19T16:26:54;2.60;;;0.80;;
61336;SDS011;47212;41.326;2.104;2022-08-19T16:31:56;1.05;;;1.05;;
61336;SDS011;47212;41.326;2.104;2022-08-19T16:37:00;2.47;;;1.20;;
61336;SDS011;47212;41.326;2.104;2022-08-19T16:42:02;0.88;;;0.80;;
61336;SDS011;47212;41.326;2.104;2022-08-19T16:47:08;0.80;;;0.80;;
61336;SDS011;47212;41.326;2.104;2022-08-19T16:52:10;1.20;;;0.80;;
61336;SDS011;47212;41.326;2.104;2022-08-19T16:57:15;1.23;;;0.90;;
61336;SDS011;47212;41.326;2.104;2022-08-19T17:02:17;1.35;;;0.80;;
61336;SDS011;47212;41.326;2.104;2022-08-19T17:07:27;2.03;;;0.90;;
61336;SDS011;47212;41.326;2.104;2022-08-19T17:12:43;1.13;;;0.90;;
61336;SDS011;47212;41.326;2.104;2022-08-19T17:17:47;2.90;;;1.10;;
61336;SDS011;47212;41.326;2.104;2022-08-19T17:22:53;1.10;;;0.80;;
61336;SDS011;47212;41.326;2.104;2022-08-19T17:27:56;1.33;;;0.90;;
61336;SDS011;47212;41.326;2.104;2022-08-19T17:33:49;1.13;;;0.90;;
61336;SDS011;47212;41.326;2.104;2022-08-19T17:38:56;3.80;;;1.10;;
61336;SDS011;47212;41.326;2.104;2022-08-19T17:44:00;2.13;;;1.20;;
61336;SDS011;47212;41.326;2.104;2022-08-19T17:49:02;2.55;;;1.13;;
61336;SDS011;47212;41.326;2.104;2022-08-19T17:54:07;0.90;;;0.90;;
61336;SDS011;47212;41.326;2.104;2022-08-19T17:59:11;1.75;;;1.10;;
61336;SDS011;47212;41.326;2.104;2022-08-19T18:04:15;0.93;;;0.82;;
61336;SDS011;47212;41.326;2.104;2022-08-19T18:09:19;2.63;;;1.30;;
61336;SDS011;47212;41.326;2.104;2022-08-19T18:14:26;0.80;;;0.80;;
61336;SDS011;47212;41.326;2.104;2022-08-19T18:19:35;1.70;;;1.13;;
61336;SDS011;47212;41.326;2.104;2022-08-19T18:25:19;1.20;;;1.08;;
61336;SDS011;47212;41.326;2.104;2022-08-19T18:30:25;1.30;;;0.82;;
61336;SDS011;47212;41.326;2.104;2022-08-19T18:35:33;1.55;;;1.00;;
61336;SDS011;47212;41.326;2.104;2022-08-19T18:40:39;2.38;;;1.13;;
61336;SDS011;47212;41.326;2.104;2022-08-19T18:45:59;2.03;;;1.13;;
61336;SDS011;47212;41.326;2.104;2022-08-19T18:51:20;1.60;;;1.02;;
61336;SDS011;47212;41.326;2.104;2022-08-19T18:56:29;2.70;;;1.33;;
61336;SDS011;47212;41.326;2.104;2022-08-19T19:01:38;2.95;;;1.30;;
61336;SDS011;47212;41.326;2.104;2022-08-19T19:06:47;1.15;;;1.05;;
61336;SDS011;47212;41.326;2.104;2022-08-19T19:11:51;2.58;;;1.30;;
61336;SDS011;47212;41.326;2.104;2022-08-19T19:17:05;0.85;;;0.82;;
61336;SDS011;47212;41.326;2.104;2022-08-19T19:22:17;1.40;;;1.25;;
61336;SDS011;47212;41.326;2.104;2022-08-19T19:27:21;1.30;;;0.80;;
61336;SDS011;47212;41.326;2.104;2022-08-19T19:32:25;1.63;;;0.90;;
61336;SDS011;47212;41.326;2.104;2022-08-19T19:37:39;3.13;;;0.95;;
61336;SDS011;47212;41.326;2.104;2022-08-19T19:42:44;2.90;;;1.52;;
61336;SDS011;47212;41.326;2.104;2022-08-19T19:47:48;3.72;;;1.60;;
61336;SDS011;47212;41.326;2.104;2022-08-19T19:52:51;1.20;;;1.10;;
61336;SDS011;47212;41.326;2.104;2022-08-19T19:57:59;2.60;;;1.40;;
61336;SDS011;47212;41.326;2.104;2022-08-19T20:03:01;1.85;;;1.30;;
61336;SDS011;47212;41.326;2.104;2022-08-19T20:08:05;2.85;;;1.60;;
61336;SDS011;47212;41.326;2.104;2022-08-19T20:13:26;1.50;;;1.20;;
61336;SDS011;47212;41.326;2.104;2022-08-19T20:18:31;2.20;;;1.25;;
61336;SDS011;47212;41.326;2.104;2022-08-19T20:23:45;3.03;;;1.38;;
61336;SDS011;47212;41.326;2.104;2022-08-19T20:29:07;3.67;;;1.52;;
61336;SDS011;47212;41.326;2.104;2022-08-19T20:34:30;2.60;;;1.50;;
61336;SDS011;47212;41.326;2.104;2022-08-19T20:39:44;1.85;;;1.50;;
61336;SDS011;47212;41.326;2.104;2022-08-19T20:44:48;1.67;;;1.38;;
61336;SDS011;47212;41.326;2.104;2022-08-19T20:49:56;1.50;;;1.30;;
61336;SDS011;47212;41.326;2.104;2022-08-19T20:54:59;1.65;;;1.38;;
61336;SDS011;47212;41.326;2.104;2022-08-19T21:00:02;3.05;;;1.77;;
61336;SDS011;47212;41.326;2.104;2022-08-19T21:05:13;3.45;;;2.00;;
61336;SDS011;47212;41.326;2.104;2022-08-19T21:10:16;2.65;;;1.65;;
61336;SDS011;47212;41.326;2.104;2022-08-19T21:15:18;2.67;;;1.73;;
61336;SDS011;47212;41.326;2.104;2022-08-19T21:20:22;1.42;;;1.30;;
61336;SDS011;47212;41.326;2.104;2022-08-19T21:25:26;2.47;;;1.65;;
61336;SDS011;47212;41.326;2.104;2022-08-19T21:30:32;2.28;;;1.60;;
61336;SDS011;47212;41.326;2.104;2022-08-19T21:35:36;4.95;;;1.77;;
61336;SDS011;47212;41.326;2.104;2022-08-19T21:40:39;5.78;;;2.75;;
61336;SDS011;47212;41.326;2.104;2022-08-19T21:51:09;2.30;;;1.70;;
61336;SDS011;47212;41.326;2.104;2022-08-19T21:56:11;4.60;;;3.25;;
61336;SDS011;47212;41.326;2.104;2022-08-19T22:01:13;4.28;;;2.42;;
61336;SDS011;47212;41.326;2.104;2022-08-19T22:06:16;2.38;;;1.67;;
61336;SDS011;47212;41.326;2.104;2022-08-19T22:11:18;1.83;;;1.55;;
61336;SDS011;47212;41.326;2.104;2022-08-19T22:16:24;2.58;;;1.70;;
61336;SDS011;47212;41.326;2.104;2022-08-19T22:21:26;2.95;;;1.90;;
61336;SDS011;47212;41.326;2.104;2022-08-19T22:26:40;2.47;;;1.80;;
61336;SDS011;47212;41.326;2.104;2022-08-19T22:31:52;3.90;;;1.67;;
61336;SDS011;47212;41.326;2.104;2022-08-19T22:36:58;2.30;;;1.73;;
61336;SDS011;47212;41.326;2.104;2022-08-19T22:42:01;2.88;;;2.05;;
61336;SDS011;47212;41.326;2.104;2022-08-19T22:47:06;2.42;;;1.98;;
61336;SDS011;47212;41.326;2.104;2022-08-19T22:52:10;2.75;;;1.95;;
61336;SDS011;47212;41.326;2.104;2022-08-19T22:57:18;3.05;;;2.10;;
61336;SDS011;47212;41.326;2.104;2022-08-19T23:02:37;2.15;;;1.70;;
61336;SDS011;47212;41.326;2.104;2022-08-19T23:07:54;2.75;;;1.80;;
61336;SDS011;47212;41.326;2.104;2022-08-19T23:13:05;3.47;;;1.83;;
61336;SDS011;47212;41.326;2.104;2022-08-19T23:18:12;2.75;;;1.73;;
61336;SDS011;47212;41.326;2.104;2022-08-19T23:23:15;3.42;;;2.00;;
61336;SDS011;47212;41.326;2.104;2022-08-19T23:28:20;2.03;;;1.60;;
61336;SDS011;47212;41.326;2.104;2022-08-19T23:38:52;2.83;;;1.80;;
61336;SDS011;47212;41.326;2.104;2022-08-19T23:43:55;2.53;;;1.75;;
61336;SDS011;47212;41.326;2.104;2022-08-19T23:48:57;4.28;;;1.88;;
61336;SDS011;47212;41.326;2.104;2022-08-19T23:53:59;4.07;;;2.40;;
61336;SDS011;47212;41.326;2.104;2022-08-19T23:59:01;3.85;;;2.28;;
